sensor_id;sensor_type;location;lat;lon;timestamp;temperature;humidity
44463;DHT22;30170;52.190;8.702;2022-12-20T00:01:50;10.10;99.90
44463;DHT22;30170;52.190;8.702;2022-12-20T00:04:23;10.00;99.90
44463;DHT22;30170;52.190;8.702;2022-12-20T00:06:50;9.90;99.90
44463;DHT22;30170;52.190;8.702;2022-12-20T00:09:19;9.40;99.90
44463;DHT22;30170;52.190;8.702;2022-12-20T00:11:47;9.70;99.90
44463;DHT22;30170;52.190;8.702;2022-12-20T00:14:14;10.20;99.90
44463;DHT22;30170;52.190;8.702;2022-12-20T00:16:49;9.50;99.90
44463;DHT22;30170;52.190;8.702;2022-12-20T00:19:16;8.60;99.90
44463;DHT22;30170;52.190;8.702;2022-12-20T00:21:43;9.90;99.90
44463;DHT22;30170;52.190;8.702;2022-12-20T00:24:11;11.10;99.90
44463;DHT22;30170;52.190;8.702;2022-12-20T00:26:38;9.60;99.90
44463;DHT22;30170;52.190;8.702;2022-12-20T00:29:07;10.20;99.90
44463;DHT22;30170;52.190;8.702;2022-12-20T00:31:34;8.80;99.90
44463;DHT22;30170;52.190;8.702;2022-12-20T00:34:02;9.80;99.90
44463;DHT22;30170;52.190;8.702;2022-12-20T00:36:30;10.60;99.90
44463;DHT22;30170;52.190;8.702;2022-12-20T00:39:00;10.00;99.90
44463;DHT22;30170;52.190;8.702;2022-12-20T00:41:30;9.60;99.90
44463;DHT22;30170;52.190;8.702;2022-12-20T00:44:02;10.00;99.90
44463;DHT22;30170;52.190;8.702;2022-12-20T00:46:30;10.10;99.90
44463;DHT22;30170;52.190;8.702;2022-12-20T00:48:58;9.00;99.90
44463;DHT22;30170;52.190;8.702;2022-12-20T00:51:27;10.10;99.90
44463;DHT22;30170;52.190;8.702;2022-12-20T00:53:57;9.90;99.90
44463;DHT22;30170;52.190;8.702;2022-12-20T00:56:24;9.90;99.90
44463;DHT22;30170;52.190;8.702;2022-12-20T00:58:52;10.50;99.90
44463;DHT22;30170;52.190;8.702;2022-12-20T01:01:29;10.20;99.90
44463;DHT22;30170;52.190;8.702;2022-12-20T01:03:57;10.00;99.90
44463;DHT22;30170;52.190;8.702;2022-12-20T01:06:31;10.20;99.90
44463;DHT22;30170;52.190;8.702;2022-12-20T01:08:59;10.20;99.90
44463;DHT22;30170;52.190;8.702;2022-12-20T01:11:32;9.90;99.90
44463;DHT22;30170;52.190;8.702;2022-12-20T01:14:13;10.20;99.90
44463;DHT22;30170;52.190;8.702;2022-12-20T01:16:44;10.00;99.90
44463;DHT22;30170;52.190;8.702;2022-12-20T01:19:15;9.20;99.90
44463;DHT22;30170;52.190;8.702;2022-12-20T01:21:45;10.30;99.90
44463;DHT22;30170;52.190;8.702;2022-12-20T01:24:15;10.60;99.90
44463;DHT22;30170;52.190;8.702;2022-12-20T01:26:43;10.80;99.90
44463;DHT22;30170;52.190;8.702;2022-12-20T01:29:18;10.20;99.90
44463;DHT22;30170;52.190;8.702;2022-12-20T01:31:47;10.20;99.90
44463;DHT22;30170;52.190;8.702;2022-12-20T01:34:15;10.10;99.90
44463;DHT22;30170;52.190;8.702;2022-12-20T01:36:45;10.70;99.90
44463;DHT22;30170;52.190;8.702;2022-12-20T01:39:14;10.40;99.90
44463;DHT22;30170;52.190;8.702;2022-12-20T01:41:43;10.10;99.90
44463;DHT22;30170;52.190;8.702;2022-12-20T01:46:46;10.50;99.90
44463;DHT22;30170;52.190;8.702;2022-12-20T01:52:10;9.90;99.90
44463;DHT22;30170;52.190;8.702;2022-12-20T01:54:53;10.40;99.90
44463;DHT22;30170;52.190;8.702;2022-12-20T01:57:43;10.50;99.90
44463;DHT22;30170;52.190;8.702;2022-12-20T02:00:18;9.90;99.90
44463;DHT22;30170;52.190;8.702;2022-12-20T02:02:48;9.80;99.90
44463;DHT22;30170;52.190;8.702;2022-12-20T02:05:21;10.10;99.90
44463;DHT22;30170;52.190;8.702;2022-12-20T02:07:54;9.80;99.90
44463;DHT22;30170;52.190;8.702;2022-12-20T02:10:26;9.70;99.90
44463;DHT22;30170;52.190;8.702;2022-12-20T02:13:09;9.70;99.90
44463;DHT22;30170;52.190;8.702;2022-12-20T02:26:58;9.50;99.90
44463;DHT22;30170;52.190;8.702;2022-12-20T02:29:36;9.40;99.90
44463;DHT22;30170;52.190;8.702;2022-12-20T02:32:31;9.90;99.90
44463;DHT22;30170;52.190;8.702;2022-12-20T02:35:00;9.40;99.90
44463;DHT22;30170;52.190;8.702;2022-12-20T02:37:28;10.30;99.90
44463;DHT22;30170;52.190;8.702;2022-12-20T02:39:55;10.20;99.90
44463;DHT22;30170;52.190;8.702;2022-12-20T02:42:26;9.60;99.90
44463;DHT22;30170;52.190;8.702;2022-12-20T02:45:06;9.50;99.90
44463;DHT22;30170;52.190;8.702;2022-12-20T02:48:07;9.60;99.90
44463;DHT22;30170;52.190;8.702;2022-12-20T02:50:47;10.10;99.90
44463;DHT22;30170;52.190;8.702;2022-12-20T02:53:19;9.80;99.90
44463;DHT22;30170;52.190;8.702;2022-12-20T02:58:51;9.50;99.90
44463;DHT22;30170;52.190;8.702;2022-12-20T03:01:33;9.40;99.90
44463;DHT22;30170;52.190;8.702;2022-12-20T03:04:04;10.50;99.90
44463;DHT22;30170;52.190;8.702;2022-12-20T03:06:35;9.80;99.90
44463;DHT22;30170;52.190;8.702;2022-12-20T03:09:05;9.60;99.90
44463;DHT22;30170;52.190;8.702;2022-12-20T03:11:32;9.50;99.90
44463;DHT22;30170;52.190;8.702;2022-12-20T03:14:00;9.90;99.90
44463;DHT22;30170;52.190;8.702;2022-12-20T03:16:32;9.90;99.90
44463;DHT22;30170;52.190;8.702;2022-12-20T03:19:01;9.50;99.90
44463;DHT22;30170;52.190;8.702;2022-12-20T03:21:31;9.50;99.90
44463;DHT22;30170;52.190;8.702;2022-12-20T03:23:59;9.60;99.90
44463;DHT22;30170;52.190;8.702;2022-12-20T03:26:27;10.10;99.90
44463;DHT22;30170;52.190;8.702;2022-12-20T03:28:54;10.30;99.90
44463;DHT22;30170;52.190;8.702;2022-12-20T03:31:21;9.80;99.90
44463;DHT22;30170;52.190;8.702;2022-12-20T03:33:48;11.20;99.90
44463;DHT22;30170;52.190;8.702;2022-12-20T03:36:15;10.80;99.90
44463;DHT22;30170;52.190;8.702;2022-12-20T03:38:42;10.80;99.90
44463;DHT22;30170;52.190;8.702;2022-12-20T03:41:09;10.10;99.90
44463;DHT22;30170;52.190;8.702;2022-12-20T03:43:36;10.90;99.90
44463;DHT22;30170;52.190;8.702;2022-12-20T03:46:03;9.80;99.90
44463;DHT22;30170;52.190;8.702;2022-12-20T03:48:31;9.80;99.90
44463;DHT22;30170;52.190;8.702;2022-12-20T03:50:58;10.50;99.90
44463;DHT22;30170;52.190;8.702;2022-12-20T03:53:25;9.90;99.90
44463;DHT22;30170;52.190;8.702;2022-12-20T03:55:54;10.30;99.90
44463;DHT22;30170;52.190;8.702;2022-12-20T03:58:21;10.70;99.90
44463;DHT22;30170;52.190;8.702;2022-12-20T04:00:49;10.50;99.90
44463;DHT22;30170;52.190;8.702;2022-12-20T04:03:16;9.90;99.90
44463;DHT22;30170;52.190;8.702;2022-12-20T04:05:43;10.60;99.90
44463;DHT22;30170;52.190;8.702;2022-12-20T04:08:10;9.90;99.90
44463;DHT22;30170;52.190;8.702;2022-12-20T04:10:38;9.90;99.90
44463;DHT22;30170;52.190;8.702;2022-12-20T04:13:25;9.90;99.90
44463;DHT22;30170;52.190;8.702;2022-12-20T04:15:52;10.20;99.90
44463;DHT22;30170;52.190;8.702;2022-12-20T04:18:26;9.20;99.90
44463;DHT22;30170;52.190;8.702;2022-12-20T04:20:53;10.70;99.90
44463;DHT22;30170;52.190;8.702;2022-12-20T04:23:20;10.90;99.90
44463;DHT22;30170;52.190;8.702;2022-12-20T04:25:48;11.20;99.90
44463;DHT22;30170;52.190;8.702;2022-12-20T04:28:15;10.10;99.90
44463;DHT22;30170;52.190;8.702;2022-12-20T04:30:42;10.00;99.90
44463;DHT22;30170;52.190;8.702;2022-12-20T04:33:09;9.60;99.90
44463;DHT22;30170;52.190;8.702;2022-12-20T04:35:36;9.60;99.90
44463;DHT22;30170;52.190;8.702;2022-12-20T04:38:03;9.30;99.90
44463;DHT22;30170;52.190;8.702;2022-12-20T04:40:30;9.20;99.90
44463;DHT22;30170;52.190;8.702;2022-12-20T04:42:57;10.30;99.90
44463;DHT22;30170;52.190;8.702;2022-12-20T04:45:24;9.30;99.90
44463;DHT22;30170;52.190;8.702;2022-12-20T04:47:51;9.10;99.90
44463;DHT22;30170;52.190;8.702;2022-12-20T04:50:18;9.00;99.90
44463;DHT22;30170;52.190;8.702;2022-12-20T04:52:44;9.00;99.90
44463;DHT22;30170;52.190;8.702;2022-12-20T04:55:30;8.90;99.90
44463;DHT22;30170;52.190;8.702;2022-12-20T04:57:57;8.90;99.90
44463;DHT22;30170;52.190;8.702;2022-12-20T05:00:33;8.90;99.90
44463;DHT22;30170;52.190;8.702;2022-12-20T05:03:00;9.00;99.90
44463;DHT22;30170;52.190;8.702;2022-12-20T05:05:27;9.40;99.90
44463;DHT22;30170;52.190;8.702;2022-12-20T05:07:54;9.00;99.90
44463;DHT22;30170;52.190;8.702;2022-12-20T05:10:22;8.90;99.90
44463;DHT22;30170;52.190;8.702;2022-12-20T05:12:48;9.00;99.90
44463;DHT22;30170;52.190;8.702;2022-12-20T05:15:15;8.80;99.90
44463;DHT22;30170;52.190;8.702;2022-12-20T05:17:42;9.20;99.90
44463;DHT22;30170;52.190;8.702;2022-12-20T05:20:09;8.50;99.90
44463;DHT22;30170;52.190;8.702;2022-12-20T05:22:36;8.50;99.90
44463;DHT22;30170;52.190;8.702;2022-12-20T05:25:22;8.40;99.90
44463;DHT22;30170;52.190;8.702;2022-12-20T05:28:07;9.50;99.90
44463;DHT22;30170;52.190;8.702;2022-12-20T05:30:34;8.60;99.90
44463;DHT22;30170;52.190;8.702;2022-12-20T05:33:01;9.20;99.90
44463;DHT22;30170;52.190;8.702;2022-12-20T05:35:28;8.70;99.90
44463;DHT22;30170;52.190;8.702;2022-12-20T05:37:55;8.70;99.90
44463;DHT22;30170;52.190;8.702;2022-12-20T05:40:22;8.60;99.90
44463;DHT22;30170;52.190;8.702;2022-12-20T05:42:49;8.80;99.90
44463;DHT22;30170;52.190;8.702;2022-12-20T05:45:16;8.70;99.90
44463;DHT22;30170;52.190;8.702;2022-12-20T05:47:44;8.80;99.90
44463;DHT22;30170;52.190;8.702;2022-12-20T05:50:11;8.80;99.90
44463;DHT22;30170;52.190;8.702;2022-12-20T05:52:44;9.00;99.90
44463;DHT22;30170;52.190;8.702;2022-12-20T05:55:11;9.20;99.90
44463;DHT22;30170;52.190;8.702;2022-12-20T05:58:21;9.40;99.90
44463;DHT22;30170;52.190;8.702;2022-12-20T06:01:01;10.30;99.90
44463;DHT22;30170;52.190;8.702;2022-12-20T06:03:36;10.60;99.90
44463;DHT22;30170;52.190;8.702;2022-12-20T06:06:16;9.60;99.90
44463;DHT22;30170;52.190;8.702;2022-12-20T06:08:53;9.50;99.90
44463;DHT22;30170;52.190;8.702;2022-12-20T07:15:42;9.20;99.90
44463;DHT22;30170;52.190;8.702;2022-12-20T07:18:09;9.40;99.90
44463;DHT22;30170;52.190;8.702;2022-12-20T07:20:36;10.40;99.90
44463;DHT22;30170;52.190;8.702;2022-12-20T07:23:03;9.40;99.90
44463;DHT22;30170;52.190;8.702;2022-12-20T07:25:31;9.30;99.90
44463;DHT22;30170;52.190;8.702;2022-12-20T07:27:58;9.40;99.90
44463;DHT22;30170;52.190;8.702;2022-12-20T07:30:25;9.30;99.90
44463;DHT22;30170;52.190;8.702;2022-12-20T07:32:52;9.30;99.90
44463;DHT22;30170;52.190;8.702;2022-12-20T07:35:19;9.50;99.90
44463;DHT22;30170;52.190;8.702;2022-12-20T07:37:45;9.80;99.90
44463;DHT22;30170;52.190;8.702;2022-12-20T07:40:12;9.50;99.90
44463;DHT22;30170;52.190;8.702;2022-12-20T07:42:40;9.60;99.90
44463;DHT22;30170;52.190;8.702;2022-12-20T07:45:14;9.60;99.90
44463;DHT22;30170;52.190;8.702;2022-12-20T07:47:41;9.70;99.90
44463;DHT22;30170;52.190;8.702;2022-12-20T07:50:09;9.70;99.90
44463;DHT22;30170;52.190;8.702;2022-12-20T07:52:39;9.90;99.90
44463;DHT22;30170;52.190;8.702;2022-12-20T07:55:08;9.90;99.90
44463;DHT22;30170;52.190;8.702;2022-12-20T07:57:50;9.70;99.90
44463;DHT22;30170;52.190;8.702;2022-12-20T08:00:18;10.20;99.90
44463;DHT22;30170;52.190;8.702;2022-12-20T08:02:50;9.80;99.90
44463;DHT22;30170;52.190;8.702;2022-12-20T08:05:21;10.50;99.90
44463;DHT22;30170;52.190;8.702;2022-12-20T08:07:48;10.00;99.90
44463;DHT22;30170;52.190;8.702;2022-12-20T08:10:27;10.00;99.90
44463;DHT22;30170;52.190;8.702;2022-12-20T08:12:55;10.00;99.90
44463;DHT22;30170;52.190;8.702;2022-12-20T08:15:22;10.10;99.90
44463;DHT22;30170;52.190;8.702;2022-12-20T08:17:52;10.00;99.90
44463;DHT22;30170;52.190;8.702;2022-12-20T08:20:18;10.40;99.90
44463;DHT22;30170;52.190;8.702;2022-12-20T08:22:45;10.00;99.90
44463;DHT22;30170;52.190;8.702;2022-12-20T08:25:12;9.90;99.90
44463;DHT22;30170;52.190;8.702;2022-12-20T08:27:39;10.00;99.90
44463;DHT22;30170;52.190;8.702;2022-12-20T08:30:08;10.60;99.90
44463;DHT22;30170;52.190;8.702;2022-12-20T08:32:37;9.90;99.90
44463;DHT22;30170;52.190;8.702;2022-12-20T08:35:05;9.80;99.90
44463;DHT22;30170;52.190;8.702;2022-12-20T08:37:32;10.20;99.90
44463;DHT22;30170;52.190;8.702;2022-12-20T08:39:59;11.50;99.90
44463;DHT22;30170;52.190;8.702;2022-12-20T08:42:27;10.00;99.90
44463;DHT22;30170;52.190;8.702;2022-12-20T08:44:54;10.00;99.90
44463;DHT22;30170;52.190;8.702;2022-12-20T08:47:21;10.00;99.90
44463;DHT22;30170;52.190;8.702;2022-12-20T08:49:48;9.90;99.90
44463;DHT22;30170;52.190;8.702;2022-12-20T08:52:15;10.10;99.90
44463;DHT22;30170;52.190;8.702;2022-12-20T08:54:42;9.90;99.90
44463;DHT22;30170;52.190;8.702;2022-12-20T08:57:09;10.20;99.90
44463;DHT22;30170;52.190;8.702;2022-12-20T08:59:36;11.20;99.90
44463;DHT22;30170;52.190;8.702;2022-12-20T09:02:02;11.30;99.90
44463;DHT22;30170;52.190;8.702;2022-12-20T09:04:29;11.40;99.90
44463;DHT22;30170;52.190;8.702;2022-12-20T09:06:57;10.20;99.90
44463;DHT22;30170;52.190;8.702;2022-12-20T09:09:23;10.70;99.90
44463;DHT22;30170;52.190;8.702;2022-12-20T09:11:50;10.40;99.90
44463;DHT22;30170;52.190;8.702;2022-12-20T09:17:20;10.20;99.90
44463;DHT22;30170;52.190;8.702;2022-12-20T09:20:13;10.70;99.90
44463;DHT22;30170;52.190;8.702;2022-12-20T09:30:46;10.10;99.90
44463;DHT22;30170;52.190;8.702;2022-12-20T09:33:13;10.30;99.90
44463;DHT22;30170;52.190;8.702;2022-12-20T09:35:46;10.40;99.90
44463;DHT22;30170;52.190;8.702;2022-12-20T09:38:14;11.00;99.90
44463;DHT22;30170;52.190;8.702;2022-12-20T09:40:50;10.60;99.90
44463;DHT22;30170;52.190;8.702;2022-12-20T09:43:17;10.70;99.90
44463;DHT22;30170;52.190;8.702;2022-12-20T09:45:46;10.80;99.90
44463;DHT22;30170;52.190;8.702;2022-12-20T09:48:22;11.40;99.90
44463;DHT22;30170;52.190;8.702;2022-12-20T09:54:05;11.30;99.90
44463;DHT22;30170;52.190;8.702;2022-12-20T09:59:19;11.70;99.90
44463;DHT22;30170;52.190;8.702;2022-12-20T10:01:48;11.20;99.90
44463;DHT22;30170;52.190;8.702;2022-12-20T10:04:22;11.60;99.90
44463;DHT22;30170;52.190;8.702;2022-12-20T10:12:47;11.60;99.90
44463;DHT22;30170;52.190;8.702;2022-12-20T10:15:34;11.60;99.90
44463;DHT22;30170;52.190;8.702;2022-12-20T10:21:09;11.50;99.90
44463;DHT22;30170;52.190;8.702;2022-12-20T10:24:19;11.80;99.90
44463;DHT22;30170;52.190;8.702;2022-12-20T10:26:50;12.30;99.90
44463;DHT22;30170;52.190;8.702;2022-12-20T10:29:18;11.90;99.90
44463;DHT22;30170;52.190;8.702;2022-12-20T10:31:56;12.30;99.90
44463;DHT22;30170;52.190;8.702;2022-12-20T10:34:24;11.40;99.90
44463;DHT22;30170;52.190;8.702;2022-12-20T10:37:14;12.10;99.90
44463;DHT22;30170;52.190;8.702;2022-12-20T10:39:50;12.00;99.90
44463;DHT22;30170;52.190;8.702;2022-12-20T10:44:58;11.70;99.90
44463;DHT22;30170;52.190;8.702;2022-12-20T10:47:37;11.80;99.90
44463;DHT22;30170;52.190;8.702;2022-12-20T10:50:26;11.70;99.90
44463;DHT22;30170;52.190;8.702;2022-12-20T10:55:38;11.80;99.90
44463;DHT22;30170;52.190;8.702;2022-12-20T11:00:43;12.10;99.90
44463;DHT22;30170;52.190;8.702;2022-12-20T11:03:21;11.80;99.90
44463;DHT22;30170;52.190;8.702;2022-12-20T11:06:00;12.40;99.90
44463;DHT22;30170;52.190;8.702;2022-12-20T11:08:31;12.10;99.90
44463;DHT22;30170;52.190;8.702;2022-12-20T11:11:17;12.30;99.90
44463;DHT22;30170;52.190;8.702;2022-12-20T11:13:49;12.10;99.90
44463;DHT22;30170;52.190;8.702;2022-12-20T11:16:52;11.90;99.90
44463;DHT22;30170;52.190;8.702;2022-12-20T11:30:26;12.40;99.90
44463;DHT22;30170;52.190;8.702;2022-12-20T11:36:07;12.20;99.90
44463;DHT22;30170;52.190;8.702;2022-12-20T11:39:08;12.10;99.90
44463;DHT22;30170;52.190;8.702;2022-12-20T11:55:58;12.10;99.90
44463;DHT22;30170;52.190;8.702;2022-12-20T12:01:33;11.90;99.90
44463;DHT22;30170;52.190;8.702;2022-12-20T12:04:12;12.70;99.90
44463;DHT22;30170;52.190;8.702;2022-12-20T12:06:59;12.30;99.90
44463;DHT22;30170;52.190;8.702;2022-12-20T12:09:40;12.20;99.90
44463;DHT22;30170;52.190;8.702;2022-12-20T12:15:29;13.00;99.90
44463;DHT22;30170;52.190;8.702;2022-12-20T12:19:23;12.20;99.90
44463;DHT22;30170;52.190;8.702;2022-12-20T12:22:26;13.50;99.90
44463;DHT22;30170;52.190;8.702;2022-12-20T12:25:07;12.90;99.90
44463;DHT22;30170;52.190;8.702;2022-12-20T12:27:41;12.30;99.90
44463;DHT22;30170;52.190;8.702;2022-12-20T12:30:13;12.30;99.90
44463;DHT22;30170;52.190;8.702;2022-12-20T12:32:47;12.20;99.90
44463;DHT22;30170;52.190;8.702;2022-12-20T12:36:01;12.90;99.90
44463;DHT22;30170;52.190;8.702;2022-12-20T12:45:49;11.90;99.90
44463;DHT22;30170;52.190;8.702;2022-12-20T12:48:28;11.90;99.90
44463;DHT22;30170;52.190;8.702;2022-12-20T12:50:59;13.00;99.90
44463;DHT22;30170;52.190;8.702;2022-12-20T12:53:50;11.80;99.90
44463;DHT22;30170;52.190;8.702;2022-12-20T13:13:01;12.40;99.90
44463;DHT22;30170;52.190;8.702;2022-12-20T13:20:35;12.00;99.90
44463;DHT22;30170;52.190;8.702;2022-12-20T13:25:50;11.90;99.90
44463;DHT22;30170;52.190;8.702;2022-12-20T13:33:42;12.60;99.90
44463;DHT22;30170;52.190;8.702;2022-12-20T13:41:43;11.10;99.90
44463;DHT22;30170;52.190;8.702;2022-12-20T13:49:38;11.50;99.90
44463;DHT22;30170;52.190;8.702;2022-12-20T13:55:00;11.30;99.90
44463;DHT22;30170;52.190;8.702;2022-12-20T13:57:38;10.50;99.90
44463;DHT22;30170;52.190;8.702;2022-12-20T14:00:36;11.50;99.90
44463;DHT22;30170;52.190;8.702;2022-12-20T14:05:55;11.80;99.90
44463;DHT22;30170;52.190;8.702;2022-12-20T14:11:26;11.90;99.90
44463;DHT22;30170;52.190;8.702;2022-12-20T14:13:55;12.10;99.90
44463;DHT22;30170;52.190;8.702;2022-12-20T14:16:50;11.90;99.90
44463;DHT22;30170;52.190;8.702;2022-12-20T14:19:49;10.10;99.90
44463;DHT22;30170;52.190;8.702;2022-12-20T14:25:42;11.60;99.90
44463;DHT22;30170;52.190;8.702;2022-12-20T14:31:04;11.50;99.90
44463;DHT22;30170;52.190;8.702;2022-12-20T14:36:19;11.50;99.90
44463;DHT22;30170;52.190;8.702;2022-12-20T14:38:50;11.40;99.90
44463;DHT22;30170;52.190;8.702;2022-12-20T14:41:33;11.70;99.90
44463;DHT22;30170;52.190;8.702;2022-12-20T14:44:16;11.30;99.90
44463;DHT22;30170;52.190;8.702;2022-12-20T14:46:54;11.20;99.90
44463;DHT22;30170;52.190;8.702;2022-12-20T14:52:04;11.20;99.90
44463;DHT22;30170;52.190;8.702;2022-12-20T14:54:32;11.80;99.90
44463;DHT22;30170;52.190;8.702;2022-12-20T14:57:31;11.60;99.90
44463;DHT22;30170;52.190;8.702;2022-12-20T15:13:24;11.30;99.90
44463;DHT22;30170;52.190;8.702;2022-12-20T15:16:01;11.60;99.90
44463;DHT22;30170;52.190;8.702;2022-12-20T15:18:31;11.60;99.90
44463;DHT22;30170;52.190;8.702;2022-12-20T15:21:05;11.70;99.90
44463;DHT22;30170;52.190;8.702;2022-12-20T15:23:55;12.10;99.90
44463;DHT22;30170;52.190;8.702;2022-12-20T15:27:24;13.40;99.90
44463;DHT22;30170;52.190;8.702;2022-12-20T15:29:52;11.30;99.90
44463;DHT22;30170;52.190;8.702;2022-12-20T15:32:35;12.40;99.90
44463;DHT22;30170;52.190;8.702;2022-12-20T15:41:34;10.90;99.90
44463;DHT22;30170;52.190;8.702;2022-12-20T15:44:22;9.80;99.90
44463;DHT22;30170;52.190;8.702;2022-12-20T15:46:51;11.70;99.90
44463;DHT22;30170;52.190;8.702;2022-12-20T15:49:21;10.80;99.90
44463;DHT22;30170;52.190;8.702;2022-12-20T15:51:52;10.90;99.90
44463;DHT22;30170;52.190;8.702;2022-12-20T15:54:48;11.10;99.90
44463;DHT22;30170;52.190;8.702;2022-12-20T15:57:19;11.50;99.90
44463;DHT22;30170;52.190;8.702;2022-12-20T15:59:46;10.60;99.90
44463;DHT22;30170;52.190;8.702;2022-12-20T18:08:10;9.40;99.90
44463;DHT22;30170;52.190;8.702;2022-12-20T18:10:37;9.80;99.90
44463;DHT22;30170;52.190;8.702;2022-12-20T18:13:04;9.50;99.90
44463;DHT22;30170;52.190;8.702;2022-12-20T18:15:31;9.50;99.90
44463;DHT22;30170;52.190;8.702;2022-12-20T18:17:58;9.50;99.90
44463;DHT22;30170;52.190;8.702;2022-12-20T18:20:25;9.50;99.90
44463;DHT22;30170;52.190;8.702;2022-12-20T18:22:52;9.40;99.90
44463;DHT22;30170;52.190;8.702;2022-12-20T18:25:19;9.40;99.90
44463;DHT22;30170;52.190;8.702;2022-12-20T18:27:52;9.80;99.90
44463;DHT22;30170;52.190;8.702;2022-12-20T18:30:19;9.40;99.90
44463;DHT22;30170;52.190;8.702;2022-12-20T18:32:46;9.70;99.90
44463;DHT22;30170;52.190;8.702;2022-12-20T18:35:13;9.70;99.90
44463;DHT22;30170;52.190;8.702;2022-12-20T18:37:40;9.30;99.90
44463;DHT22;30170;52.190;8.702;2022-12-20T18:40:07;9.40;99.90
44463;DHT22;30170;52.190;8.702;2022-12-20T18:42:44;9.30;99.90
44463;DHT22;30170;52.190;8.702;2022-12-20T18:45:49;10.30;99.90
44463;DHT22;30170;52.190;8.702;2022-12-20T18:48:31;10.40;99.90
44463;DHT22;30170;52.190;8.702;2022-12-20T18:51:15;9.30;99.90
44463;DHT22;30170;52.190;8.702;2022-12-20T18:53:44;9.40;99.90
44463;DHT22;30170;52.190;8.702;2022-12-20T18:56:29;9.60;99.90
44463;DHT22;30170;52.190;8.702;2022-12-20T18:58:58;9.30;99.90
44463;DHT22;30170;52.190;8.702;2022-12-20T19:01:36;9.20;99.90
44463;DHT22;30170;52.190;8.702;2022-12-20T19:07:53;10.50;99.90
44463;DHT22;30170;52.190;8.702;2022-12-20T19:10:20;9.30;99.90
44463;DHT22;30170;52.190;8.702;2022-12-20T19:12:47;9.20;99.90
44463;DHT22;30170;52.190;8.702;2022-12-20T19:15:13;9.20;99.90
44463;DHT22;30170;52.190;8.702;2022-12-20T19:17:40;9.40;99.90
44463;DHT22;30170;52.190;8.702;2022-12-20T19:20:08;9.20;99.90
44463;DHT22;30170;52.190;8.702;2022-12-20T19:22:35;9.20;99.90
44463;DHT22;30170;52.190;8.702;2022-12-20T19:25:01;9.30;99.90
44463;DHT22;30170;52.190;8.702;2022-12-20T19:27:29;9.40;99.90
44463;DHT22;30170;52.190;8.702;2022-12-20T19:29:55;9.20;99.90
44463;DHT22;30170;52.190;8.702;2022-12-20T19:32:22;9.90;99.90
44463;DHT22;30170;52.190;8.702;2022-12-20T19:34:49;9.60;99.90
44463;DHT22;30170;52.190;8.702;2022-12-20T19:37:16;9.20;99.90
44463;DHT22;30170;52.190;8.702;2022-12-20T19:39:43;9.20;99.90
44463;DHT22;30170;52.190;8.702;2022-12-20T19:42:10;9.10;99.90
44463;DHT22;30170;52.190;8.702;2022-12-20T19:44:50;9.50;99.90
44463;DHT22;30170;52.190;8.702;2022-12-20T19:47:17;9.90;99.90
44463;DHT22;30170;52.190;8.702;2022-12-20T19:49:44;9.20;99.90
44463;DHT22;30170;52.190;8.702;2022-12-20T19:52:10;9.10;99.90
44463;DHT22;30170;52.190;8.702;2022-12-20T19:54:38;9.20;99.90
44463;DHT22;30170;52.190;8.702;2022-12-20T19:57:05;9.40;99.90
44463;DHT22;30170;52.190;8.702;2022-12-20T19:59:32;9.10;99.90
44463;DHT22;30170;52.190;8.702;2022-12-20T20:01:59;8.90;99.90
44463;DHT22;30170;52.190;8.702;2022-12-20T20:04:27;9.10;99.90
44463;DHT22;30170;52.190;8.702;2022-12-20T20:06:54;9.10;99.90
44463;DHT22;30170;52.190;8.702;2022-12-20T20:09:22;8.90;99.90
44463;DHT22;30170;52.190;8.702;2022-12-20T20:11:49;9.00;99.90
44463;DHT22;30170;52.190;8.702;2022-12-20T20:14:16;8.90;99.90
44463;DHT22;30170;52.190;8.702;2022-12-20T20:16:43;8.90;99.90
44463;DHT22;30170;52.190;8.702;2022-12-20T20:19:10;9.10;99.90
44463;DHT22;30170;52.190;8.702;2022-12-20T20:21:36;9.30;99.90
44463;DHT22;30170;52.190;8.702;2022-12-20T20:24:04;9.20;99.90
44463;DHT22;30170;52.190;8.702;2022-12-20T20:26:31;9.20;99.90
44463;DHT22;30170;52.190;8.702;2022-12-20T20:29:00;8.80;99.90
44463;DHT22;30170;52.190;8.702;2022-12-20T20:31:27;8.70;99.90
44463;DHT22;30170;52.190;8.702;2022-12-20T20:33:56;8.60;99.90
44463;DHT22;30170;52.190;8.702;2022-12-20T20:36:23;8.70;99.90
44463;DHT22;30170;52.190;8.702;2022-12-20T20:38:50;8.70;99.90
44463;DHT22;30170;52.190;8.702;2022-12-20T20:41:18;8.70;99.90
44463;DHT22;30170;52.190;8.702;2022-12-20T20:43:45;9.20;99.90
44463;DHT22;30170;52.190;8.702;2022-12-20T20:46:13;8.90;99.90
44463;DHT22;30170;52.190;8.702;2022-12-20T20:48:40;8.80;99.90
44463;DHT22;30170;52.190;8.702;2022-12-20T20:51:07;8.70;99.90
44463;DHT22;30170;52.190;8.702;2022-12-20T20:53:35;8.70;99.90
44463;DHT22;30170;52.190;8.702;2022-12-20T20:56:03;8.60;99.90
44463;DHT22;30170;52.190;8.702;2022-12-20T20:58:31;8.70;99.90
44463;DHT22;30170;52.190;8.702;2022-12-20T21:00:59;8.80;99.90
44463;DHT22;30170;52.190;8.702;2022-12-20T21:03:28;8.90;99.90
44463;DHT22;30170;52.190;8.702;2022-12-20T21:05:55;9.10;99.90
44463;DHT22;30170;52.190;8.702;2022-12-20T21:08:43;8.90;99.90
44463;DHT22;30170;52.190;8.702;2022-12-20T21:11:10;8.90;99.90
44463;DHT22;30170;52.190;8.702;2022-12-20T21:13:37;8.90;99.90
44463;DHT22;30170;52.190;8.702;2022-12-20T21:16:09;8.90;99.90
44463;DHT22;30170;52.190;8.702;2022-12-20T21:18:40;8.90;99.90
44463;DHT22;30170;52.190;8.702;2022-12-20T21:21:11;8.90;99.90
44463;DHT22;30170;52.190;8.702;2022-12-20T21:23:43;8.80;99.90
44463;DHT22;30170;52.190;8.702;2022-12-20T21:26:11;8.80;99.90
44463;DHT22;30170;52.190;8.702;2022-12-20T21:28:38;8.80;99.90
44463;DHT22;30170;52.190;8.702;2022-12-20T21:31:07;8.80;99.90
44463;DHT22;30170;52.190;8.702;2022-12-20T21:33:37;9.10;99.90
44463;DHT22;30170;52.190;8.702;2022-12-20T21:36:15;8.70;99.90
44463;DHT22;30170;52.190;8.702;2022-12-20T21:38:53;8.80;99.90
44463;DHT22;30170;52.190;8.702;2022-12-20T21:41:21;8.70;99.90
44463;DHT22;30170;52.190;8.702;2022-12-20T21:43:49;8.70;99.90
44463;DHT22;30170;52.190;8.702;2022-12-20T21:46:16;8.80;99.90
44463;DHT22;30170;52.190;8.702;2022-12-20T21:48:44;9.00;99.90
44463;DHT22;30170;52.190;8.702;2022-12-20T21:51:13;8.90;99.90
44463;DHT22;30170;52.190;8.702;2022-12-20T21:53:48;8.80;99.90
44463;DHT22;30170;52.190;8.702;2022-12-20T21:56:17;8.70;99.90
44463;DHT22;30170;52.190;8.702;2022-12-20T21:58:44;8.80;99.90
44463;DHT22;30170;52.190;8.702;2022-12-20T22:01:13;8.90;99.90
44463;DHT22;30170;52.190;8.702;2022-12-20T22:03:42;8.90;99.90
44463;DHT22;30170;52.190;8.702;2022-12-20T22:06:10;9.00;99.90
44463;DHT22;30170;52.190;8.702;2022-12-20T22:08:37;8.90;99.90
44463;DHT22;30170;52.190;8.702;2022-12-20T22:11:09;8.90;99.90
44463;DHT22;30170;52.190;8.702;2022-12-20T22:13:37;10.00;99.90
44463;DHT22;30170;52.190;8.702;2022-12-20T22:16:11;8.90;99.90
44463;DHT22;30170;52.190;8.702;2022-12-20T22:18:39;8.90;99.90
44463;DHT22;30170;52.190;8.702;2022-12-20T22:21:08;8.90;99.90